Santiago Pérez Quiroz Airport

Airport
ICAO code: 
SKUC
IATA Code: 
AUC
Summary
ICAO Region: 
CARSAM
Territory: 
Location: 
Arauca, Arauca Department
Serving: 
Arauca
Elevation: 
423 ft
Coordinates: 
Aerial View: 
7° 4' 5.388" N, 70° 44' 7.117" W
Metar
Observation
SKUC 030100Z 31003KT 9999 SCT015 25/24 Q1011 RMK A2985
Station
Arauca / Santiago Perez
Date/Time
2021-12-03 01:00:00
Wind direction
310°
Wind speed
03 kts
Lowest cloud amount
scattered clouds
Temperature
25°C
Dew point
24°C
Humidity
94%
QNH
1011 hPa
Weather condition
n/a

Santiago Pérez Quiroz Airport is an airport serving Arauca, the capital of the Arauca Department in Colombia. The runway is southeast of the city, and 2km south of Colombia's border with Venezuela.

Climatology

Tropical savannah climate (Köppen climate classification Aw)

Runways

Designator Length Width Surface Rops
11/29 2100 30 ASP No/No
Airport map: 
Aerial View: 

SKYbrary Partners:

Safety knowledge contributed by: